sensor_id;sensor_type;location;lat;lon;timestamp;P1;durP1;ratioP1;P2;durP2;ratioP2
36253;SDS011;22291;52.250;21.228;2022-11-02T00:01:33;42.48;;;38.25;;
36253;SDS011;22291;52.250;21.228;2022-11-02T00:04:05;112.72;;;92.02;;
36253;SDS011;22291;52.250;21.228;2022-11-02T00:06:32;72.65;;;32.98;;
36253;SDS011;22291;52.250;21.228;2022-11-02T00:08:58;111.92;;;99.85;;
36253;SDS011;22291;52.250;21.228;2022-11-02T00:11:24;107.12;;;93.70;;
36253;SDS011;22291;52.250;21.228;2022-11-02T00:13:50;107.07;;;92.25;;
36253;SDS011;22291;52.250;21.228;2022-11-02T00:16:17;76.72;;;68.45;;
36253;SDS011;22291;52.250;21.228;2022-11-02T00:18:46;57.78;;;27.45;;
36253;SDS011;22291;52.250;21.228;2022-11-02T00:21:17;94.83;;;78.75;;
36253;SDS011;22291;52.250;21.228;2022-11-02T00:23:46;100.03;;;90.23;;
36253;SDS011;22291;52.250;21.228;2022-11-02T00:26:14;110.37;;;98.80;;
36253;SDS011;22291;52.250;21.228;2022-11-02T00:28:41;71.10;;;31.50;;
36253;SDS011;22291;52.250;21.228;2022-11-02T00:31:07;106.65;;;96.02;;
36253;SDS011;22291;52.250;21.228;2022-11-02T00:33:33;106.70;;;95.72;;
36253;SDS011;22291;52.250;21.228;2022-11-02T00:36:00;108.20;;;97.05;;
36253;SDS011;22291;52.250;21.228;2022-11-02T00:38:26;106.97;;;95.72;;
36253;SDS011;22291;52.250;21.228;2022-11-02T00:40:52;107.05;;;96.10;;
36253;SDS011;22291;52.250;21.228;2022-11-02T00:43:18;106.05;;;95.03;;
36253;SDS011;22291;52.250;21.228;2022-11-02T00:45:45;101.27;;;90.75;;
36253;SDS011;22291;52.250;21.228;2022-11-02T00:48:11;96.73;;;86.37;;
36253;SDS011;22291;52.250;21.228;2022-11-02T00:50:37;96.22;;;86.08;;
36253;SDS011;22291;52.250;21.228;2022-11-02T00:53:03;100.33;;;90.00;;
36253;SDS011;22291;52.250;21.228;2022-11-02T00:55:29;62.80;;;28.23;;
36253;SDS011;22291;52.250;21.228;2022-11-02T00:57:55;55.75;;;25.57;;
36253;SDS011;22291;52.250;21.228;2022-11-02T01:00:22;62.40;;;26.57;;
36253;SDS011;22291;52.250;21.228;2022-11-02T01:02:49;59.70;;;25.68;;
36253;SDS011;22291;52.250;21.228;2022-11-02T01:05:15;57.53;;;25.90;;
36253;SDS011;22291;52.250;21.228;2022-11-02T01:07:41;60.52;;;25.32;;
36253;SDS011;22291;52.250;21.228;2022-11-02T01:10:08;56.35;;;24.90;;
36253;SDS011;22291;52.250;21.228;2022-11-02T01:12:37;58.67;;;32.37;;
36253;SDS011;22291;52.250;21.228;2022-11-02T01:15:05;62.40;;;26.50;;
36253;SDS011;22291;52.250;21.228;2022-11-02T01:17:33;49.00;;;23.97;;
36253;SDS011;22291;52.250;21.228;2022-11-02T01:19:59;72.92;;;57.15;;
36253;SDS011;22291;52.250;21.228;2022-11-02T01:22:25;105.47;;;94.85;;
36253;SDS011;22291;52.250;21.228;2022-11-02T01:24:52;104.30;;;93.45;;
36253;SDS011;22291;52.250;21.228;2022-11-02T01:27:18;98.90;;;87.47;;
36253;SDS011;22291;52.250;21.228;2022-11-02T01:29:44;100.72;;;90.07;;
36253;SDS011;22291;52.250;21.228;2022-11-02T01:32:10;80.62;;;70.72;;
36253;SDS011;22291;52.250;21.228;2022-11-02T01:34:36;105.67;;;95.28;;
36253;SDS011;22291;52.250;21.228;2022-11-02T01:37:03;106.85;;;96.97;;
36253;SDS011;22291;52.250;21.228;2022-11-02T01:39:29;83.47;;;67.65;;
36253;SDS011;22291;52.250;21.228;2022-11-02T01:41:55;109.40;;;98.27;;
36253;SDS011;22291;52.250;21.228;2022-11-02T01:47:04;106.97;;;96.55;;
36253;SDS011;22291;52.250;21.228;2022-11-02T01:49:40;103.97;;;93.62;;
36253;SDS011;22291;52.250;21.228;2022-11-02T01:52:11;106.52;;;94.75;;
36253;SDS011;22291;52.250;21.228;2022-11-02T01:54:50;100.87;;;90.70;;
36253;SDS011;22291;52.250;21.228;2022-11-02T01:57:26;105.65;;;94.50;;
36253;SDS011;22291;52.250;21.228;2022-11-02T01:59:59;104.85;;;93.52;;
36253;SDS011;22291;52.250;21.228;2022-11-02T02:02:29;104.60;;;93.67;;
36253;SDS011;22291;52.250;21.228;2022-11-02T02:05:04;105.43;;;94.92;;
36253;SDS011;22291;52.250;21.228;2022-11-02T02:07:35;102.80;;;91.02;;
36253;SDS011;22291;52.250;21.228;2022-11-02T02:10:04;101.55;;;89.90;;
36253;SDS011;22291;52.250;21.228;2022-11-02T02:12:33;105.50;;;93.03;;
36253;SDS011;22291;52.250;21.228;2022-11-02T02:15:03;64.17;;;27.15;;
36253;SDS011;22291;52.250;21.228;2022-11-02T02:20:19;57.00;;;25.95;;
36253;SDS011;22291;52.250;21.228;2022-11-02T02:31:01;100.22;;;89.90;;
36253;SDS011;22291;52.250;21.228;2022-11-02T02:33:53;104.38;;;93.80;;
36253;SDS011;22291;52.250;21.228;2022-11-02T02:36:29;70.90;;;54.85;;
36253;SDS011;22291;52.250;21.228;2022-11-02T02:39:04;63.17;;;42.75;;
36253;SDS011;22291;52.250;21.228;2022-11-02T02:41:53;108.32;;;97.27;;
36253;SDS011;22291;52.250;21.228;2022-11-02T02:44:39;106.55;;;95.45;;
36253;SDS011;22291;52.250;21.228;2022-11-02T02:47:12;103.55;;;93.22;;
36253;SDS011;22291;52.250;21.228;2022-11-02T02:49:47;102.05;;;91.95;;
36253;SDS011;22291;52.250;21.228;2022-11-02T02:52:19;105.97;;;95.30;;
36253;SDS011;22291;52.250;21.228;2022-11-02T02:54:50;100.25;;;89.50;;
36253;SDS011;22291;52.250;21.228;2022-11-02T02:57:21;101.22;;;91.08;;
36253;SDS011;22291;52.250;21.228;2022-11-02T02:59:52;99.83;;;89.67;;
36253;SDS011;22291;52.250;21.228;2022-11-02T03:02:22;56.98;;;51.73;;
36253;SDS011;22291;52.250;21.228;2022-11-02T03:04:55;4.97;;;4.78;;
36253;SDS011;22291;52.250;21.228;2022-11-02T03:07:23;48.60;;;21.75;;
36253;SDS011;22291;52.250;21.228;2022-11-02T03:09:57;61.15;;;28.07;;
36253;SDS011;22291;52.250;21.228;2022-11-02T03:15:12;109.45;;;98.27;;
36253;SDS011;22291;52.250;21.228;2022-11-02T03:20:39;103.53;;;92.62;;
36253;SDS011;22291;52.250;21.228;2022-11-02T03:23:15;104.97;;;93.75;;
36253;SDS011;22291;52.250;21.228;2022-11-02T03:28:39;67.50;;;32.55;;
36253;SDS011;22291;52.250;21.228;2022-11-02T03:31:39;58.35;;;28.87;;
36253;SDS011;22291;52.250;21.228;2022-11-02T03:36:48;68.70;;;32.25;;
36253;SDS011;22291;52.250;21.228;2022-11-02T03:39:27;71.02;;;29.35;;
36253;SDS011;22291;52.250;21.228;2022-11-02T03:41:54;109.15;;;97.72;;
36253;SDS011;22291;52.250;21.228;2022-11-02T03:44:23;105.63;;;89.37;;
36253;SDS011;22291;52.250;21.228;2022-11-02T03:46:52;105.90;;;91.35;;
36253;SDS011;22291;52.250;21.228;2022-11-02T03:49:21;96.60;;;86.00;;
36253;SDS011;22291;52.250;21.228;2022-11-02T03:56:57;109.63;;;95.70;;
36253;SDS011;22291;52.250;21.228;2022-11-02T03:59:29;110.88;;;96.50;;
36253;SDS011;22291;52.250;21.228;2022-11-02T04:01:57;3.92;;;3.83;;
36253;SDS011;22291;52.250;21.228;2022-11-02T04:04:24;31.62;;;30.20;;
36253;SDS011;22291;52.250;21.228;2022-11-02T04:06:51;10.30;;;9.83;;
36253;SDS011;22291;52.250;21.228;2022-11-02T04:09:18;103.45;;;92.25;;
36253;SDS011;22291;52.250;21.228;2022-11-02T04:11:45;115.40;;;98.72;;
36253;SDS011;22291;52.250;21.228;2022-11-02T04:14:31;125.60;;;98.60;;
36253;SDS011;22291;52.250;21.228;2022-11-02T04:17:04;105.63;;;72.45;;
36253;SDS011;22291;52.250;21.228;2022-11-02T04:19:50;120.92;;;103.10;;
36253;SDS011;22291;52.250;21.228;2022-11-02T04:22:17;131.65;;;103.25;;
36253;SDS011;22291;52.250;21.228;2022-11-02T04:25:06;108.45;;;61.02;;
36253;SDS011;22291;52.250;21.228;2022-11-02T04:27:41;102.17;;;66.67;;
36253;SDS011;22291;52.250;21.228;2022-11-02T04:30:09;117.42;;;87.20;;
36253;SDS011;22291;52.250;21.228;2022-11-02T04:32:37;125.37;;;98.23;;
36253;SDS011;22291;52.250;21.228;2022-11-02T04:35:31;129.18;;;104.27;;
36253;SDS011;22291;52.250;21.228;2022-11-02T04:37:59;134.57;;;102.17;;
36253;SDS011;22291;52.250;21.228;2022-11-02T04:40:45;116.95;;;86.72;;
36253;SDS011;22291;52.250;21.228;2022-11-02T04:43:12;123.45;;;76.67;;
36253;SDS011;22291;52.250;21.228;2022-11-02T04:45:39;139.82;;;106.22;;
36253;SDS011;22291;52.250;21.228;2022-11-02T04:48:06;101.55;;;37.83;;
36253;SDS011;22291;52.250;21.228;2022-11-02T04:50:35;129.82;;;102.22;;
36253;SDS011;22291;52.250;21.228;2022-11-02T04:53:03;137.68;;;105.22;;
36253;SDS011;22291;52.250;21.228;2022-11-02T04:55:33;139.72;;;105.90;;
36253;SDS011;22291;52.250;21.228;2022-11-02T04:58:00;131.85;;;104.92;;
36253;SDS011;22291;52.250;21.228;2022-11-02T05:00:27;130.40;;;101.87;;
36253;SDS011;22291;52.250;21.228;2022-11-02T05:02:55;135.85;;;102.40;;
36253;SDS011;22291;52.250;21.228;2022-11-02T05:05:21;142.90;;;104.50;;
36253;SDS011;22291;52.250;21.228;2022-11-02T05:07:48;129.23;;;100.18;;
36253;SDS011;22291;52.250;21.228;2022-11-02T05:10:15;135.22;;;103.00;;
36253;SDS011;22291;52.250;21.228;2022-11-02T05:12:42;145.10;;;103.60;;
36253;SDS011;22291;52.250;21.228;2022-11-02T05:15:09;115.17;;;40.85;;
36253;SDS011;22291;52.250;21.228;2022-11-02T05:17:36;139.30;;;107.15;;
36253;SDS011;22291;52.250;21.228;2022-11-02T05:20:04;137.65;;;107.37;;
36253;SDS011;22291;52.250;21.228;2022-11-02T05:22:34;138.25;;;100.27;;
36253;SDS011;22291;52.250;21.228;2022-11-02T05:25:00;142.75;;;104.35;;
36253;SDS011;22291;52.250;21.228;2022-11-02T05:27:27;150.60;;;106.03;;
36253;SDS011;22291;52.250;21.228;2022-11-02T05:29:54;148.62;;;108.70;;
36253;SDS011;22291;52.250;21.228;2022-11-02T05:32:21;155.03;;;106.22;;
36253;SDS011;22291;52.250;21.228;2022-11-02T05:34:48;150.47;;;104.23;;
36253;SDS011;22291;52.250;21.228;2022-11-02T05:37:15;142.05;;;102.70;;
36253;SDS011;22291;52.250;21.228;2022-11-02T05:39:42;158.30;;;111.28;;
36253;SDS011;22291;52.250;21.228;2022-11-02T05:42:09;150.12;;;108.97;;
36253;SDS011;22291;52.250;21.228;2022-11-02T05:44:36;150.20;;;108.55;;
36253;SDS011;22291;52.250;21.228;2022-11-02T05:47:03;163.75;;;111.15;;
36253;SDS011;22291;52.250;21.228;2022-11-02T05:49:30;163.77;;;109.37;;
36253;SDS011;22291;52.250;21.228;2022-11-02T05:51:58;156.43;;;110.20;;
36253;SDS011;22291;52.250;21.228;2022-11-02T05:54:25;158.03;;;104.58;;
36253;SDS011;22291;52.250;21.228;2022-11-02T05:56:52;157.47;;;109.90;;
36253;SDS011;22291;52.250;21.228;2022-11-02T05:59:19;166.03;;;111.68;;
36253;SDS011;22291;52.250;21.228;2022-11-02T06:01:48;156.50;;;112.15;;
36253;SDS011;22291;52.250;21.228;2022-11-02T06:04:15;160.80;;;109.25;;
36253;SDS011;22291;52.250;21.228;2022-11-02T06:06:42;160.18;;;109.10;;
36253;SDS011;22291;52.250;21.228;2022-11-02T06:09:09;159.05;;;110.95;;
36253;SDS011;22291;52.250;21.228;2022-11-02T06:11:36;150.57;;;112.05;;
36253;SDS011;22291;52.250;21.228;2022-11-02T06:14:03;168.70;;;109.00;;
36253;SDS011;22291;52.250;21.228;2022-11-02T06:16:30;152.35;;;109.00;;
36253;SDS011;22291;52.250;21.228;2022-11-02T06:18:57;164.70;;;108.87;;
36253;SDS011;22291;52.250;21.228;2022-11-02T06:21:25;150.25;;;109.07;;
36253;SDS011;22291;52.250;21.228;2022-11-02T06:23:52;156.90;;;107.10;;
36253;SDS011;22291;52.250;21.228;2022-11-02T06:26:21;157.78;;;106.25;;
36253;SDS011;22291;52.250;21.228;2022-11-02T06:28:48;141.30;;;103.72;;
36253;SDS011;22291;52.250;21.228;2022-11-02T06:31:19;149.62;;;105.30;;
36253;SDS011;22291;52.250;21.228;2022-11-02T06:33:46;168.65;;;102.50;;
36253;SDS011;22291;52.250;21.228;2022-11-02T06:36:13;145.12;;;103.78;;
36253;SDS011;22291;52.250;21.228;2022-11-02T06:38:40;161.73;;;109.35;;
36253;SDS011;22291;52.250;21.228;2022-11-02T06:41:07;160.22;;;102.15;;
36253;SDS011;22291;52.250;21.228;2022-11-02T06:43:36;152.72;;;103.05;;
36253;SDS011;22291;52.250;21.228;2022-11-02T06:46:06;149.45;;;105.75;;
36253;SDS011;22291;52.250;21.228;2022-11-02T06:48:32;147.87;;;100.75;;
36253;SDS011;22291;52.250;21.228;2022-11-02T06:51:03;151.00;;;101.87;;
36253;SDS011;22291;52.250;21.228;2022-11-02T06:53:33;138.55;;;95.87;;
36253;SDS011;22291;52.250;21.228;2022-11-02T06:56:09;144.65;;;101.62;;
36253;SDS011;22291;52.250;21.228;2022-11-02T06:58:41;133.03;;;102.07;;
36253;SDS011;22291;52.250;21.228;2022-11-02T07:01:20;139.70;;;103.97;;
36253;SDS011;22291;52.250;21.228;2022-11-02T07:03:47;88.87;;;66.92;;
36253;SDS011;22291;52.250;21.228;2022-11-02T07:06:14;132.85;;;94.00;;
36253;SDS011;22291;52.250;21.228;2022-11-02T07:08:41;91.55;;;68.05;;
36253;SDS011;22291;52.250;21.228;2022-11-02T07:11:11;139.62;;;96.75;;
36253;SDS011;22291;52.250;21.228;2022-11-02T07:13:42;131.65;;;100.58;;
36253;SDS011;22291;52.250;21.228;2022-11-02T07:16:10;128.97;;;100.80;;
36253;SDS011;22291;52.250;21.228;2022-11-02T07:18:36;127.60;;;94.92;;
36253;SDS011;22291;52.250;21.228;2022-11-02T07:21:03;10.70;;;10.17;;
36253;SDS011;22291;52.250;21.228;2022-11-02T07:23:30;9.87;;;9.37;;
36253;SDS011;22291;52.250;21.228;2022-11-02T07:26:00;105.72;;;94.30;;
36253;SDS011;22291;52.250;21.228;2022-11-02T07:28:27;109.87;;;92.78;;
36253;SDS011;22291;52.250;21.228;2022-11-02T07:30:54;105.55;;;92.27;;
36253;SDS011;22291;52.250;21.228;2022-11-02T07:33:22;105.43;;;93.27;;
36253;SDS011;22291;52.250;21.228;2022-11-02T07:35:48;120.82;;;89.50;;
36253;SDS011;22291;52.250;21.228;2022-11-02T07:38:17;98.67;;;86.92;;
36253;SDS011;22291;52.250;21.228;2022-11-02T07:40:47;70.35;;;62.17;;
36253;SDS011;22291;52.250;21.228;2022-11-02T07:43:16;69.62;;;25.25;;
36253;SDS011;22291;52.250;21.228;2022-11-02T07:45:43;58.65;;;26.68;;
36253;SDS011;22291;52.250;21.228;2022-11-02T07:48:09;69.30;;;39.95;;
36253;SDS011;22291;52.250;21.228;2022-11-02T07:50:39;106.60;;;95.62;;
36253;SDS011;22291;52.250;21.228;2022-11-02T07:53:09;102.75;;;92.15;;
36253;SDS011;22291;52.250;21.228;2022-11-02T07:55:38;102.53;;;91.72;;
36253;SDS011;22291;52.250;21.228;2022-11-02T07:58:10;104.17;;;92.90;;
36253;SDS011;22291;52.250;21.228;2022-11-02T08:00:39;100.12;;;89.72;;
36253;SDS011;22291;52.250;21.228;2022-11-02T08:03:09;101.82;;;90.92;;
36253;SDS011;22291;52.250;21.228;2022-11-02T08:05:38;102.42;;;92.05;;
36253;SDS011;22291;52.250;21.228;2022-11-02T08:08:12;101.82;;;91.75;;
36253;SDS011;22291;52.250;21.228;2022-11-02T08:10:47;103.33;;;93.00;;
36253;SDS011;22291;52.250;21.228;2022-11-02T08:13:18;101.45;;;91.22;;
36253;SDS011;22291;52.250;21.228;2022-11-02T08:15:48;101.87;;;92.00;;
36253;SDS011;22291;52.250;21.228;2022-11-02T08:18:18;97.78;;;87.97;;
36253;SDS011;22291;52.250;21.228;2022-11-02T08:20:48;94.50;;;85.00;;
36253;SDS011;22291;52.250;21.228;2022-11-02T08:23:18;73.87;;;66.37;;
36253;SDS011;22291;52.250;21.228;2022-11-02T08:28:10;82.42;;;74.15;;
36253;SDS011;22291;52.250;21.228;2022-11-02T08:30:40;91.82;;;82.53;;
36253;SDS011;22291;52.250;21.228;2022-11-02T08:33:10;70.85;;;63.65;;
36253;SDS011;22291;52.250;21.228;2022-11-02T08:35:42;96.02;;;87.47;;
36253;SDS011;22291;52.250;21.228;2022-11-02T08:38:12;73.07;;;65.97;;
36253;SDS011;22291;52.250;21.228;2022-11-02T08:40:42;97.08;;;88.42;;
36253;SDS011;22291;52.250;21.228;2022-11-02T08:43:12;97.35;;;88.72;;
36253;SDS011;22291;52.250;21.228;2022-11-02T08:45:42;93.37;;;85.42;;
36253;SDS011;22291;52.250;21.228;2022-11-02T08:48:12;94.35;;;85.87;;
36253;SDS011;22291;52.250;21.228;2022-11-02T08:50:39;88.58;;;80.95;;
36253;SDS011;22291;52.250;21.228;2022-11-02T08:53:07;91.50;;;82.82;;
36253;SDS011;22291;52.250;21.228;2022-11-02T08:55:36;74.37;;;67.15;;
36253;SDS011;22291;52.250;21.228;2022-11-02T08:58:03;60.52;;;54.95;;
36253;SDS011;22291;52.250;21.228;2022-11-02T09:00:31;11.00;;;10.10;;
36253;SDS011;22291;52.250;21.228;2022-11-02T09:05:22;40.12;;;24.25;;
36253;SDS011;22291;52.250;21.228;2022-11-02T09:07:50;40.58;;;28.25;;
36253;SDS011;22291;52.250;21.228;2022-11-02T09:10:21;94.47;;;86.57;;
36253;SDS011;22291;52.250;21.228;2022-11-02T09:12:47;91.25;;;83.17;;
36253;SDS011;22291;52.250;21.228;2022-11-02T09:15:14;90.03;;;81.95;;
36253;SDS011;22291;52.250;21.228;2022-11-02T09:17:40;88.85;;;81.10;;
36253;SDS011;22291;52.250;21.228;2022-11-02T09:20:07;87.90;;;80.15;;
36253;SDS011;22291;52.250;21.228;2022-11-02T09:22:54;89.62;;;81.25;;
36253;SDS011;22291;52.250;21.228;2022-11-02T09:25:21;87.78;;;79.90;;
36253;SDS011;22291;52.250;21.228;2022-11-02T09:27:50;34.33;;;18.05;;
36253;SDS011;22291;52.250;21.228;2022-11-02T09:30:19;38.83;;;19.17;;
36253;SDS011;22291;52.250;21.228;2022-11-02T09:32:57;35.48;;;17.77;;
36253;SDS011;22291;52.250;21.228;2022-11-02T09:35:27;51.90;;;46.47;;
36253;SDS011;22291;52.250;21.228;2022-11-02T09:37:56;89.32;;;81.57;;
36253;SDS011;22291;52.250;21.228;2022-11-02T09:40:24;85.03;;;77.55;;
36253;SDS011;22291;52.250;21.228;2022-11-02T09:51:15;85.25;;;77.92;;
36253;SDS011;22291;52.250;21.228;2022-11-02T09:53:57;87.67;;;80.70;;
36253;SDS011;22291;52.250;21.228;2022-11-02T09:56:45;86.32;;;79.07;;
36253;SDS011;22291;52.250;21.228;2022-11-02T09:59:19;92.27;;;84.60;;
36253;SDS011;22291;52.250;21.228;2022-11-02T10:10:36;61.30;;;55.33;;
36253;SDS011;22291;52.250;21.228;2022-11-02T10:13:25;92.37;;;84.52;;
36253;SDS011;22291;52.250;21.228;2022-11-02T10:15:56;53.15;;;48.25;;
36253;SDS011;22291;52.250;21.228;2022-11-02T10:18:43;38.88;;;20.15;;
36253;SDS011;22291;52.250;21.228;2022-11-02T10:21:18;18.45;;;11.80;;
36253;SDS011;22291;52.250;21.228;2022-11-02T10:23:54;8.65;;;8.15;;
36253;SDS011;22291;52.250;21.228;2022-11-02T10:26:26;8.23;;;7.83;;
36253;SDS011;22291;52.250;21.228;2022-11-02T10:29:00;12.55;;;11.85;;
36253;SDS011;22291;52.250;21.228;2022-11-02T10:31:33;12.90;;;12.30;;
36253;SDS011;22291;52.250;21.228;2022-11-02T10:37:01;13.65;;;12.98;;
36253;SDS011;22291;52.250;21.228;2022-11-02T10:45:28;6.92;;;6.72;;
36253;SDS011;22291;52.250;21.228;2022-11-02T10:48:16;39.70;;;22.32;;
36253;SDS011;22291;52.250;21.228;2022-11-02T10:53:37;34.53;;;19.07;;
36253;SDS011;22291;52.250;21.228;2022-11-02T10:56:13;37.85;;;18.27;;
36253;SDS011;22291;52.250;21.228;2022-11-02T10:58:49;95.20;;;86.32;;
36253;SDS011;22291;52.250;21.228;2022-11-02T11:01:20;92.22;;;84.07;;
36253;SDS011;22291;52.250;21.228;2022-11-02T11:06:36;92.75;;;84.72;;
36253;SDS011;22291;52.250;21.228;2022-11-02T11:09:14;87.10;;;79.27;;
36253;SDS011;22291;52.250;21.228;2022-11-02T11:14:50;6.80;;;6.55;;
36253;SDS011;22291;52.250;21.228;2022-11-02T11:17:26;3.12;;;3.02;;
36253;SDS011;22291;52.250;21.228;2022-11-02T12:54:47;77.17;;;71.22;;
36253;SDS011;22291;52.250;21.228;2022-11-02T12:59:35;68.87;;;63.27;;
36253;SDS011;22291;52.250;21.228;2022-11-02T15:38:05;22.80;;;14.85;;
36253;SDS011;22291;52.250;21.228;2022-11-02T15:40:33;28.70;;;17.17;;
36253;SDS011;22291;52.250;21.228;2022-11-02T15:43:06;28.65;;;15.13;;
36253;SDS011;22291;52.250;21.228;2022-11-02T15:55:26;28.05;;;16.17;;
36253;SDS011;22291;52.250;21.228;2022-11-02T16:03:53;23.87;;;14.85;;
36253;SDS011;22291;52.250;21.228;2022-11-02T16:06:23;30.23;;;17.17;;
36253;SDS011;22291;52.250;21.228;2022-11-02T16:09:22;26.12;;;15.53;;
36253;SDS011;22291;52.250;21.228;2022-11-02T16:12:06;29.07;;;16.52;;
36253;SDS011;22291;52.250;21.228;2022-11-02T16:14:40;30.92;;;16.10;;
36253;SDS011;22291;52.250;21.228;2022-11-02T16:17:18;28.98;;;17.65;;
36253;SDS011;22291;52.250;21.228;2022-11-02T16:19:51;26.77;;;17.75;;
36253;SDS011;22291;52.250;21.228;2022-11-02T16:22:38;28.65;;;16.30;;
36253;SDS011;22291;52.250;21.228;2022-11-02T16:25:07;31.93;;;17.75;;
36253;SDS011;22291;52.250;21.228;2022-11-02T16:27:37;35.95;;;18.70;;
36253;SDS011;22291;52.250;21.228;2022-11-02T16:30:05;37.80;;;20.00;;
36253;SDS011;22291;52.250;21.228;2022-11-02T16:32:42;27.17;;;16.37;;
36253;SDS011;22291;52.250;21.228;2022-11-02T16:35:11;33.42;;;19.70;;
36253;SDS011;22291;52.250;21.228;2022-11-02T16:37:43;43.23;;;21.33;;
36253;SDS011;22291;52.250;21.228;2022-11-02T16:40:16;35.90;;;19.90;;
36253;SDS011;22291;52.250;21.228;2022-11-02T16:42:45;39.60;;;22.42;;
36253;SDS011;22291;52.250;21.228;2022-11-02T16:47:58;42.80;;;23.02;;
36253;SDS011;22291;52.250;21.228;2022-11-02T16:50:25;49.15;;;25.48;;
36253;SDS011;22291;52.250;21.228;2022-11-02T16:52:57;44.00;;;25.17;;
36253;SDS011;22291;52.250;21.228;2022-11-02T16:55:42;42.00;;;23.50;;
36253;SDS011;22291;52.250;21.228;2022-11-02T16:58:13;42.67;;;25.40;;
36253;SDS011;22291;52.250;21.228;2022-11-02T17:00:57;48.73;;;26.75;;
36253;SDS011;22291;52.250;21.228;2022-11-02T17:09:31;48.85;;;25.43;;
36253;SDS011;22291;52.250;21.228;2022-11-02T17:11:59;44.35;;;24.15;;
36253;SDS011;22291;52.250;21.228;2022-11-02T17:14:32;47.08;;;24.35;;
36253;SDS011;22291;52.250;21.228;2022-11-02T17:22:10;44.90;;;21.30;;
36253;SDS011;22291;52.250;21.228;2022-11-02T17:24:48;42.10;;;24.37;;
36253;SDS011;22291;52.250;21.228;2022-11-02T17:27:37;40.20;;;24.75;;
36253;SDS011;22291;52.250;21.228;2022-11-02T17:30:05;42.98;;;24.82;;
36253;SDS011;22291;52.250;21.228;2022-11-02T17:32:36;51.70;;;26.17;;
36253;SDS011;22291;52.250;21.228;2022-11-02T17:35:02;44.25;;;24.65;;
36253;SDS011;22291;52.250;21.228;2022-11-02T17:37:38;42.78;;;22.70;;
36253;SDS011;22291;52.250;21.228;2022-11-02T17:40:00;46.68;;;23.10;;
36253;SDS011;22291;52.250;21.228;2022-11-02T17:42:27;40.50;;;22.02;;
36253;SDS011;22291;52.250;21.228;2022-11-02T17:45:23;41.33;;;22.10;;
36253;SDS011;22291;52.250;21.228;2022-11-02T17:47:56;46.65;;;26.07;;
36253;SDS011;22291;52.250;21.228;2022-11-02T17:50:25;43.92;;;24.70;;
36253;SDS011;22291;52.250;21.228;2022-11-02T17:55:23;48.45;;;24.98;;
36253;SDS011;22291;52.250;21.228;2022-11-02T18:00:20;58.60;;;31.05;;
36253;SDS011;22291;52.250;21.228;2022-11-02T18:02:48;88.37;;;40.48;;
36253;SDS011;22291;52.250;21.228;2022-11-02T18:05:33;85.65;;;41.77;;
36253;SDS011;22291;52.250;21.228;2022-11-02T18:08:03;78.47;;;36.93;;
36253;SDS011;22291;52.250;21.228;2022-11-02T18:10:32;145.30;;;82.72;;
36253;SDS011;22291;52.250;21.228;2022-11-02T18:13:05;69.92;;;35.10;;
36253;SDS011;22291;52.250;21.228;2022-11-02T18:15:35;55.48;;;29.10;;
36253;SDS011;22291;52.250;21.228;2022-11-02T18:18:02;50.85;;;26.65;;
36253;SDS011;22291;52.250;21.228;2022-11-02T18:20:28;42.83;;;24.75;;
36253;SDS011;22291;52.250;21.228;2022-11-02T18:22:56;104.35;;;94.25;;
36253;SDS011;22291;52.250;21.228;2022-11-02T18:25:26;103.20;;;93.92;;
36253;SDS011;22291;52.250;21.228;2022-11-02T18:27:59;66.40;;;60.28;;
36253;SDS011;22291;52.250;21.228;2022-11-02T18:30:28;42.40;;;23.70;;
36253;SDS011;22291;52.250;21.228;2022-11-02T18:32:56;49.10;;;27.58;;
36253;SDS011;22291;52.250;21.228;2022-11-02T18:35:26;47.60;;;25.60;;
36253;SDS011;22291;52.250;21.228;2022-11-02T18:37:53;45.28;;;24.80;;
36253;SDS011;22291;52.250;21.228;2022-11-02T18:40:20;42.30;;;23.65;;
36253;SDS011;22291;52.250;21.228;2022-11-02T18:42:48;43.33;;;26.37;;
36253;SDS011;22291;52.250;21.228;2022-11-02T18:45:16;80.00;;;56.10;;
36253;SDS011;22291;52.250;21.228;2022-11-02T18:47:44;84.70;;;75.65;;
36253;SDS011;22291;52.250;21.228;2022-11-02T18:50:11;107.35;;;98.10;;
36253;SDS011;22291;52.250;21.228;2022-11-02T18:52:39;58.02;;;31.68;;
36253;SDS011;22291;52.250;21.228;2022-11-02T18:55:09;72.62;;;64.77;;
36253;SDS011;22291;52.250;21.228;2022-11-02T18:57:36;105.52;;;95.97;;
36253;SDS011;22291;52.250;21.228;2022-11-02T19:00:04;97.90;;;89.22;;
36253;SDS011;22291;52.250;21.228;2022-11-02T19:02:32;95.25;;;86.42;;
36253;SDS011;22291;52.250;21.228;2022-11-02T19:05:00;95.03;;;86.47;;
36253;SDS011;22291;52.250;21.228;2022-11-02T19:07:27;55.65;;;44.58;;
36253;SDS011;22291;52.250;21.228;2022-11-02T19:10:13;96.97;;;88.72;;
36253;SDS011;22291;52.250;21.228;2022-11-02T19:12:39;98.33;;;89.52;;
36253;SDS011;22291;52.250;21.228;2022-11-02T19:15:07;46.53;;;22.87;;
36253;SDS011;22291;52.250;21.228;2022-11-02T19:17:35;102.70;;;93.65;;
36253;SDS011;22291;52.250;21.228;2022-11-02T19:20:02;100.50;;;91.20;;
36253;SDS011;22291;52.250;21.228;2022-11-02T19:22:31;96.45;;;88.35;;
36253;SDS011;22291;52.250;21.228;2022-11-02T19:24:58;92.72;;;84.97;;
36253;SDS011;22291;52.250;21.228;2022-11-02T19:27:26;89.83;;;82.23;;
36253;SDS011;22291;52.250;21.228;2022-11-02T19:29:54;90.40;;;82.78;;
36253;SDS011;22291;52.250;21.228;2022-11-02T19:32:21;92.50;;;84.32;;
36253;SDS011;22291;52.250;21.228;2022-11-02T19:34:48;64.87;;;59.40;;
36253;SDS011;22291;52.250;21.228;2022-11-02T19:37:15;89.28;;;81.97;;
36253;SDS011;22291;52.250;21.228;2022-11-02T19:39:41;87.67;;;80.65;;
36253;SDS011;22291;52.250;21.228;2022-11-02T19:42:09;89.15;;;81.72;;
36253;SDS011;22291;52.250;21.228;2022-11-02T19:44:36;89.55;;;82.22;;
36253;SDS011;22291;52.250;21.228;2022-11-02T19:47:03;87.53;;;80.65;;
36253;SDS011;22291;52.250;21.228;2022-11-02T19:49:30;92.00;;;84.67;;
36253;SDS011;22291;52.250;21.228;2022-11-02T19:51:57;88.78;;;81.67;;
36253;SDS011;22291;52.250;21.228;2022-11-02T19:54:24;85.28;;;78.57;;
36253;SDS011;22291;52.250;21.228;2022-11-02T19:56:51;81.40;;;75.03;;
36253;SDS011;22291;52.250;21.228;2022-11-02T20:01:47;25.85;;;10.38;;
36253;SDS011;22291;52.250;21.228;2022-11-02T20:04:15;86.72;;;79.90;;
36253;SDS011;22291;52.250;21.228;2022-11-02T20:06:42;87.42;;;80.57;;
36253;SDS011;22291;52.250;21.228;2022-11-02T20:09:13;88.92;;;82.08;;
36253;SDS011;22291;52.250;21.228;2022-11-02T20:11:43;87.70;;;80.67;;
36253;SDS011;22291;52.250;21.228;2022-11-02T20:14:11;83.97;;;77.30;;
36253;SDS011;22291;52.250;21.228;2022-11-02T20:16:40;30.45;;;26.40;;
36253;SDS011;22291;52.250;21.228;2022-11-02T20:19:07;36.73;;;33.05;;